sensor_id;sensor_type;location;lat;lon;timestamp;temperature;humidity
2539;DHT22;1280;49.760;9.664;2023-03-01T00:01:20;2.50;66.60
2539;DHT22;1280;49.760;9.664;2023-03-01T00:03:50;2.50;66.60
2539;DHT22;1280;49.760;9.664;2023-03-01T00:06:19;2.50;66.60
2539;DHT22;1280;49.760;9.664;2023-03-01T00:08:48;2.50;66.60
2539;DHT22;1280;49.760;9.664;2023-03-01T00:11:18;2.50;66.50
2539;DHT22;1280;49.760;9.664;2023-03-01T00:13:48;2.40;66.40
2539;DHT22;1280;49.760;9.664;2023-03-01T00:16:19;2.40;66.40
2539;DHT22;1280;49.760;9.664;2023-03-01T00:18:49;2.30;66.50
2539;DHT22;1280;49.760;9.664;2023-03-01T00:21:20;2.30;66.50
2539;DHT22;1280;49.760;9.664;2023-03-01T00:23:48;2.20;66.50
2539;DHT22;1280;49.760;9.664;2023-03-01T00:26:18;2.20;66.60
2539;DHT22;1280;49.760;9.664;2023-03-01T00:28:47;2.20;66.70
2539;DHT22;1280;49.760;9.664;2023-03-01T00:31:16;2.20;66.80
2539;DHT22;1280;49.760;9.664;2023-03-01T00:33:45;2.20;66.90
2539;DHT22;1280;49.760;9.664;2023-03-01T00:36:15;2.20;66.80
2539;DHT22;1280;49.760;9.664;2023-03-01T00:38:45;2.20;66.80
2539;DHT22;1280;49.760;9.664;2023-03-01T00:41:14;2.20;66.90
2539;DHT22;1280;49.760;9.664;2023-03-01T00:43:44;2.30;67.00
2539;DHT22;1280;49.760;9.664;2023-03-01T00:46:13;2.30;67.00
2539;DHT22;1280;49.760;9.664;2023-03-01T00:48:43;2.40;67.00
2539;DHT22;1280;49.760;9.664;2023-03-01T00:51:13;2.40;67.10
2539;DHT22;1280;49.760;9.664;2023-03-01T00:53:44;2.50;67.00
2539;DHT22;1280;49.760;9.664;2023-03-01T00:56:13;2.50;66.90
2539;DHT22;1280;49.760;9.664;2023-03-01T00:58:43;2.40;66.80
2539;DHT22;1280;49.760;9.664;2023-03-01T01:01:14;2.40;66.60
2539;DHT22;1280;49.760;9.664;2023-03-01T01:03:46;2.30;66.60
2539;DHT22;1280;49.760;9.664;2023-03-01T01:06:16;2.30;66.60
2539;DHT22;1280;49.760;9.664;2023-03-01T01:08:45;2.20;66.60
2539;DHT22;1280;49.760;9.664;2023-03-01T01:11:14;2.10;66.70
2539;DHT22;1280;49.760;9.664;2023-03-01T01:13:44;2.10;66.70
2539;DHT22;1280;49.760;9.664;2023-03-01T01:16:14;2.10;66.70
2539;DHT22;1280;49.760;9.664;2023-03-01T01:18:43;2.00;66.70
2539;DHT22;1280;49.760;9.664;2023-03-01T01:21:13;2.00;66.80
2539;DHT22;1280;49.760;9.664;2023-03-01T01:23:42;2.00;67.00
2539;DHT22;1280;49.760;9.664;2023-03-01T01:26:14;2.00;67.00
2539;DHT22;1280;49.760;9.664;2023-03-01T01:28:42;2.00;67.10
2539;DHT22;1280;49.760;9.664;2023-03-01T01:31:13;2.00;67.10
2539;DHT22;1280;49.760;9.664;2023-03-01T01:33:41;2.00;67.10
2539;DHT22;1280;49.760;9.664;2023-03-01T01:36:10;2.00;67.20
2539;DHT22;1280;49.760;9.664;2023-03-01T01:38:39;2.00;67.30
2539;DHT22;1280;49.760;9.664;2023-03-01T01:41:10;2.00;67.30
2539;DHT22;1280;49.760;9.664;2023-03-01T01:43:44;2.10;67.40
2539;DHT22;1280;49.760;9.664;2023-03-01T01:46:20;2.10;67.30
2539;DHT22;1280;49.760;9.664;2023-03-01T01:48:53;2.10;67.30
2539;DHT22;1280;49.760;9.664;2023-03-01T01:51:25;2.20;67.40
2539;DHT22;1280;49.760;9.664;2023-03-01T01:53:58;2.20;67.30
2539;DHT22;1280;49.760;9.664;2023-03-01T01:56:29;2.20;67.20
2539;DHT22;1280;49.760;9.664;2023-03-01T01:58:59;2.20;67.20
2539;DHT22;1280;49.760;9.664;2023-03-01T02:01:29;2.20;67.20
2539;DHT22;1280;49.760;9.664;2023-03-01T02:03:57;2.20;67.10
2539;DHT22;1280;49.760;9.664;2023-03-01T02:06:29;2.20;67.10
2539;DHT22;1280;49.760;9.664;2023-03-01T02:09:03;2.20;66.90
2539;DHT22;1280;49.760;9.664;2023-03-01T02:11:33;2.10;67.00
2539;DHT22;1280;49.760;9.664;2023-03-01T02:14:06;2.10;67.00
2539;DHT22;1280;49.760;9.664;2023-03-01T02:16:36;2.10;67.00
2539;DHT22;1280;49.760;9.664;2023-03-01T02:19:05;2.10;66.90
2539;DHT22;1280;49.760;9.664;2023-03-01T02:21:40;2.00;67.00
2539;DHT22;1280;49.760;9.664;2023-03-01T02:24:19;2.00;66.90
2539;DHT22;1280;49.760;9.664;2023-03-01T02:26:53;2.00;67.10
2539;DHT22;1280;49.760;9.664;2023-03-01T02:29:24;2.00;67.10
2539;DHT22;1280;49.760;9.664;2023-03-01T02:31:54;1.90;67.20
2539;DHT22;1280;49.760;9.664;2023-03-01T02:34:25;1.90;67.10
2539;DHT22;1280;49.760;9.664;2023-03-01T02:36:58;1.90;67.20
2539;DHT22;1280;49.760;9.664;2023-03-01T02:39:33;1.90;67.20
2539;DHT22;1280;49.760;9.664;2023-03-01T02:42:02;1.90;67.20
2539;DHT22;1280;49.760;9.664;2023-03-01T02:44:33;1.90;67.30
2539;DHT22;1280;49.760;9.664;2023-03-01T02:47:02;1.90;67.40
2539;DHT22;1280;49.760;9.664;2023-03-01T02:49:32;1.90;67.40
2539;DHT22;1280;49.760;9.664;2023-03-01T02:55:09;2.00;67.40
2539;DHT22;1280;49.760;9.664;2023-03-01T02:57:41;2.00;67.40
2539;DHT22;1280;49.760;9.664;2023-03-01T03:00:13;2.00;67.30
2539;DHT22;1280;49.760;9.664;2023-03-01T03:02:47;2.00;67.30
2539;DHT22;1280;49.760;9.664;2023-03-01T03:05:31;1.90;67.30
2539;DHT22;1280;49.760;9.664;2023-03-01T03:08:01;1.90;67.30
2539;DHT22;1280;49.760;9.664;2023-03-01T03:10:37;1.90;67.30
2539;DHT22;1280;49.760;9.664;2023-03-01T03:13:09;1.90;67.30
2539;DHT22;1280;49.760;9.664;2023-03-01T03:15:40;1.90;67.40
2539;DHT22;1280;49.760;9.664;2023-03-01T03:18:10;1.90;67.20
2539;DHT22;1280;49.760;9.664;2023-03-01T03:20:40;1.90;67.10
2539;DHT22;1280;49.760;9.664;2023-03-01T03:23:09;1.80;67.00
2539;DHT22;1280;49.760;9.664;2023-03-01T03:25:37;1.70;67.00
2539;DHT22;1280;49.760;9.664;2023-03-01T03:28:06;1.70;67.10
2539;DHT22;1280;49.760;9.664;2023-03-01T03:30:40;1.70;67.30
2539;DHT22;1280;49.760;9.664;2023-03-01T03:33:09;1.70;67.30
2539;DHT22;1280;49.760;9.664;2023-03-01T03:35:41;1.60;67.10
2539;DHT22;1280;49.760;9.664;2023-03-01T03:38:11;1.60;67.10
2539;DHT22;1280;49.760;9.664;2023-03-01T03:40:45;1.60;67.30
2539;DHT22;1280;49.760;9.664;2023-03-01T03:43:15;1.50;67.30
2539;DHT22;1280;49.760;9.664;2023-03-01T03:45:45;1.50;67.30
2539;DHT22;1280;49.760;9.664;2023-03-01T03:48:15;1.50;67.40
2539;DHT22;1280;49.760;9.664;2023-03-01T03:50:48;1.50;67.40
2539;DHT22;1280;49.760;9.664;2023-03-01T03:53:18;1.50;67.40
2539;DHT22;1280;49.760;9.664;2023-03-01T03:55:47;1.50;67.40
2539;DHT22;1280;49.760;9.664;2023-03-01T03:58:16;1.50;67.40
2539;DHT22;1280;49.760;9.664;2023-03-01T04:00:49;1.50;67.50
2539;DHT22;1280;49.760;9.664;2023-03-01T04:03:19;1.50;67.50
2539;DHT22;1280;49.760;9.664;2023-03-01T04:06:03;1.50;67.50
2539;DHT22;1280;49.760;9.664;2023-03-01T04:08:32;1.50;67.50
2539;DHT22;1280;49.760;9.664;2023-03-01T04:11:02;1.50;67.50
2539;DHT22;1280;49.760;9.664;2023-03-01T04:13:52;1.50;67.50
2539;DHT22;1280;49.760;9.664;2023-03-01T04:16:22;1.50;67.50
2539;DHT22;1280;49.760;9.664;2023-03-01T04:18:50;1.50;67.40
2539;DHT22;1280;49.760;9.664;2023-03-01T04:21:19;1.50;67.50
2539;DHT22;1280;49.760;9.664;2023-03-01T04:23:47;1.50;67.50
2539;DHT22;1280;49.760;9.664;2023-03-01T04:26:15;1.50;67.50
2539;DHT22;1280;49.760;9.664;2023-03-01T04:28:43;1.50;67.50
2539;DHT22;1280;49.760;9.664;2023-03-01T04:31:15;1.50;67.50
2539;DHT22;1280;49.760;9.664;2023-03-01T04:33:48;1.50;67.70
2539;DHT22;1280;49.760;9.664;2023-03-01T04:36:19;1.50;67.70
2539;DHT22;1280;49.760;9.664;2023-03-01T04:38:47;1.50;67.70
2539;DHT22;1280;49.760;9.664;2023-03-01T04:41:17;1.60;67.70
2539;DHT22;1280;49.760;9.664;2023-03-01T04:43:46;1.60;67.60
2539;DHT22;1280;49.760;9.664;2023-03-01T04:46:17;1.60;67.50
2539;DHT22;1280;49.760;9.664;2023-03-01T04:48:47;1.60;67.60
2539;DHT22;1280;49.760;9.664;2023-03-01T04:51:16;1.50;67.70
2539;DHT22;1280;49.760;9.664;2023-03-01T04:53:45;1.50;67.80
2539;DHT22;1280;49.760;9.664;2023-03-01T04:56:13;1.60;67.80
2539;DHT22;1280;49.760;9.664;2023-03-01T04:58:42;1.60;67.90
2539;DHT22;1280;49.760;9.664;2023-03-01T05:01:10;1.70;67.90
2539;DHT22;1280;49.760;9.664;2023-03-01T05:03:42;1.70;67.90
2539;DHT22;1280;49.760;9.664;2023-03-01T05:06:12;1.70;67.80
2539;DHT22;1280;49.760;9.664;2023-03-01T05:08:41;1.70;67.90
2539;DHT22;1280;49.760;9.664;2023-03-01T05:11:10;1.80;67.90
2539;DHT22;1280;49.760;9.664;2023-03-01T05:13:39;1.80;67.80
2539;DHT22;1280;49.760;9.664;2023-03-01T05:16:08;1.80;67.80
2539;DHT22;1280;49.760;9.664;2023-03-01T05:18:56;1.80;67.90
2539;DHT22;1280;49.760;9.664;2023-03-01T05:21:26;1.80;67.90
2539;DHT22;1280;49.760;9.664;2023-03-01T05:23:53;1.80;67.90
2539;DHT22;1280;49.760;9.664;2023-03-01T05:26:22;1.80;67.90
2539;DHT22;1280;49.760;9.664;2023-03-01T05:28:55;1.80;67.80
2539;DHT22;1280;49.760;9.664;2023-03-01T05:31:25;1.80;67.70
2539;DHT22;1280;49.760;9.664;2023-03-01T05:33:53;1.70;67.60
2539;DHT22;1280;49.760;9.664;2023-03-01T05:36:21;1.60;67.60
2539;DHT22;1280;49.760;9.664;2023-03-01T05:38:56;1.50;67.70
2539;DHT22;1280;49.760;9.664;2023-03-01T05:41:24;1.50;67.80
2539;DHT22;1280;49.760;9.664;2023-03-01T05:43:52;1.40;67.80
2539;DHT22;1280;49.760;9.664;2023-03-01T05:46:20;1.40;67.90
2539;DHT22;1280;49.760;9.664;2023-03-01T05:48:50;1.30;68.00
2539;DHT22;1280;49.760;9.664;2023-03-01T05:51:19;1.30;68.00
2539;DHT22;1280;49.760;9.664;2023-03-01T05:53:48;1.30;68.10
2539;DHT22;1280;49.760;9.664;2023-03-01T05:56:18;1.20;68.20
2539;DHT22;1280;49.760;9.664;2023-03-01T05:58:47;1.20;68.10
2539;DHT22;1280;49.760;9.664;2023-03-01T06:01:15;1.20;68.20
2539;DHT22;1280;49.760;9.664;2023-03-01T06:03:43;1.10;68.30
2539;DHT22;1280;49.760;9.664;2023-03-01T06:06:11;1.10;68.60
2539;DHT22;1280;49.760;9.664;2023-03-01T06:08:39;1.10;68.50
2539;DHT22;1280;49.760;9.664;2023-03-01T06:11:07;1.10;68.60
2539;DHT22;1280;49.760;9.664;2023-03-01T06:13:37;1.10;68.50
2539;DHT22;1280;49.760;9.664;2023-03-01T06:16:05;1.10;68.70
2539;DHT22;1280;49.760;9.664;2023-03-01T06:18:36;1.10;68.70
2539;DHT22;1280;49.760;9.664;2023-03-01T06:21:06;1.10;68.80
2539;DHT22;1280;49.760;9.664;2023-03-01T06:23:35;1.10;68.80
2539;DHT22;1280;49.760;9.664;2023-03-01T06:26:08;1.10;68.70
2539;DHT22;1280;49.760;9.664;2023-03-01T06:28:40;1.10;68.70
2539;DHT22;1280;49.760;9.664;2023-03-01T06:31:09;1.20;68.70
2539;DHT22;1280;49.760;9.664;2023-03-01T06:33:37;1.20;68.80
2539;DHT22;1280;49.760;9.664;2023-03-01T06:36:06;1.20;68.70
2539;DHT22;1280;49.760;9.664;2023-03-01T06:38:34;1.20;68.80
2539;DHT22;1280;49.760;9.664;2023-03-01T06:41:02;1.20;68.80
2539;DHT22;1280;49.760;9.664;2023-03-01T06:43:31;1.20;68.90
2539;DHT22;1280;49.760;9.664;2023-03-01T06:46:02;1.20;68.90
2539;DHT22;1280;49.760;9.664;2023-03-01T06:48:31;1.20;69.10
2539;DHT22;1280;49.760;9.664;2023-03-01T06:51:01;1.20;69.10
2539;DHT22;1280;49.760;9.664;2023-03-01T06:53:29;1.30;68.90
2539;DHT22;1280;49.760;9.664;2023-03-01T06:55:57;1.30;68.90
2539;DHT22;1280;49.760;9.664;2023-03-01T06:58:26;1.20;69.10
2539;DHT22;1280;49.760;9.664;2023-03-01T07:00:54;1.20;69.20
2539;DHT22;1280;49.760;9.664;2023-03-01T07:03:24;1.30;69.20
2539;DHT22;1280;49.760;9.664;2023-03-01T07:05:52;1.30;69.20
2539;DHT22;1280;49.760;9.664;2023-03-01T07:08:20;1.30;69.20
2539;DHT22;1280;49.760;9.664;2023-03-01T07:10:48;1.30;69.20
2539;DHT22;1280;49.760;9.664;2023-03-01T07:13:18;1.40;69.10
2539;DHT22;1280;49.760;9.664;2023-03-01T07:15:46;1.40;69.20
2539;DHT22;1280;49.760;9.664;2023-03-01T07:18:14;1.50;69.10
2539;DHT22;1280;49.760;9.664;2023-03-01T07:20:43;1.50;69.10
2539;DHT22;1280;49.760;9.664;2023-03-01T07:23:11;1.50;69.10
2539;DHT22;1280;49.760;9.664;2023-03-01T07:25:39;1.50;69.20
2539;DHT22;1280;49.760;9.664;2023-03-01T07:28:07;1.60;69.20
2539;DHT22;1280;49.760;9.664;2023-03-01T07:30:35;1.50;69.10
2539;DHT22;1280;49.760;9.664;2023-03-01T07:33:03;1.50;69.20
2539;DHT22;1280;49.760;9.664;2023-03-01T07:35:31;1.60;69.20
2539;DHT22;1280;49.760;9.664;2023-03-01T07:38:01;1.60;69.20
2539;DHT22;1280;49.760;9.664;2023-03-01T07:40:29;1.60;69.20
2539;DHT22;1280;49.760;9.664;2023-03-01T07:42:57;1.60;69.20
2539;DHT22;1280;49.760;9.664;2023-03-01T07:45:25;1.70;69.30
2539;DHT22;1280;49.760;9.664;2023-03-01T07:47:54;1.80;69.20
2539;DHT22;1280;49.760;9.664;2023-03-01T07:50:22;1.90;69.10
2539;DHT22;1280;49.760;9.664;2023-03-01T07:52:51;1.90;69.10
2539;DHT22;1280;49.760;9.664;2023-03-01T07:55:21;1.90;69.20
2539;DHT22;1280;49.760;9.664;2023-03-01T07:57:49;1.90;69.20
2539;DHT22;1280;49.760;9.664;2023-03-01T08:00:17;2.00;69.30
2539;DHT22;1280;49.760;9.664;2023-03-01T08:02:45;2.00;69.00
2539;DHT22;1280;49.760;9.664;2023-03-01T08:05:13;2.10;69.00
2539;DHT22;1280;49.760;9.664;2023-03-01T08:07:41;2.10;69.10
2539;DHT22;1280;49.760;9.664;2023-03-01T08:10:10;2.10;69.00
2539;DHT22;1280;49.760;9.664;2023-03-01T08:12:40;2.20;69.00
2539;DHT22;1280;49.760;9.664;2023-03-01T08:15:08;2.20;69.00
2539;DHT22;1280;49.760;9.664;2023-03-01T08:17:39;2.30;69.00
2539;DHT22;1280;49.760;9.664;2023-03-01T08:20:08;2.30;68.70
2539;DHT22;1280;49.760;9.664;2023-03-01T08:22:39;2.30;68.80
2539;DHT22;1280;49.760;9.664;2023-03-01T08:25:07;2.40;68.60
2539;DHT22;1280;49.760;9.664;2023-03-01T08:27:35;2.40;68.90
2539;DHT22;1280;49.760;9.664;2023-03-01T08:30:06;2.50;68.70
2539;DHT22;1280;49.760;9.664;2023-03-01T08:32:38;2.50;68.30
2539;DHT22;1280;49.760;9.664;2023-03-01T08:35:07;2.50;68.30
2539;DHT22;1280;49.760;9.664;2023-03-01T08:37:35;2.60;68.40
2539;DHT22;1280;49.760;9.664;2023-03-01T08:40:04;2.70;68.50
2539;DHT22;1280;49.760;9.664;2023-03-01T08:42:33;2.80;68.40
2539;DHT22;1280;49.760;9.664;2023-03-01T08:45:01;2.80;68.10
2539;DHT22;1280;49.760;9.664;2023-03-01T08:47:31;2.90;68.00
2539;DHT22;1280;49.760;9.664;2023-03-01T08:50:00;2.90;68.00
2539;DHT22;1280;49.760;9.664;2023-03-01T08:52:28;2.90;67.40
2539;DHT22;1280;49.760;9.664;2023-03-01T08:54:56;3.00;67.50
2539;DHT22;1280;49.760;9.664;2023-03-01T08:57:24;3.00;67.50
2539;DHT22;1280;49.760;9.664;2023-03-01T09:00:13;3.00;67.30
2539;DHT22;1280;49.760;9.664;2023-03-01T09:02:45;3.00;67.40
2539;DHT22;1280;49.760;9.664;2023-03-01T09:05:13;3.10;67.50
2539;DHT22;1280;49.760;9.664;2023-03-01T09:07:41;3.10;67.40
2539;DHT22;1280;49.760;9.664;2023-03-01T09:10:10;3.20;67.40
2539;DHT22;1280;49.760;9.664;2023-03-01T09:12:38;3.20;67.20
2539;DHT22;1280;49.760;9.664;2023-03-01T09:15:07;3.20;67.20
2539;DHT22;1280;49.760;9.664;2023-03-01T09:17:35;3.30;67.20
2539;DHT22;1280;49.760;9.664;2023-03-01T09:20:06;3.40;67.20
2539;DHT22;1280;49.760;9.664;2023-03-01T09:22:34;3.40;67.10
2539;DHT22;1280;49.760;9.664;2023-03-01T09:25:02;3.40;66.90
2539;DHT22;1280;49.760;9.664;2023-03-01T09:27:30;3.40;66.80
2539;DHT22;1280;49.760;9.664;2023-03-01T09:30:19;3.60;66.80
2539;DHT22;1280;49.760;9.664;2023-03-01T09:32:47;3.60;66.80
2539;DHT22;1280;49.760;9.664;2023-03-01T09:35:16;3.60;66.60
2539;DHT22;1280;49.760;9.664;2023-03-01T09:37:46;3.60;66.50
2539;DHT22;1280;49.760;9.664;2023-03-01T09:40:19;3.70;66.40
2539;DHT22;1280;49.760;9.664;2023-03-01T09:42:53;3.80;66.50
2539;DHT22;1280;49.760;9.664;2023-03-01T09:45:27;3.80;66.30
2539;DHT22;1280;49.760;9.664;2023-03-01T09:47:56;3.80;66.30
2539;DHT22;1280;49.760;9.664;2023-03-01T09:50:30;3.90;66.10
2539;DHT22;1280;49.760;9.664;2023-03-01T09:53:01;3.90;66.00
2539;DHT22;1280;49.760;9.664;2023-03-01T09:55:33;3.90;65.90
2539;DHT22;1280;49.760;9.664;2023-03-01T09:58:27;3.90;65.70
2539;DHT22;1280;49.760;9.664;2023-03-01T10:00:59;4.00;65.60
2539;DHT22;1280;49.760;9.664;2023-03-01T10:03:36;4.00;65.40
2539;DHT22;1280;49.760;9.664;2023-03-01T10:06:13;4.10;65.40
2539;DHT22;1280;49.760;9.664;2023-03-01T10:09:02;4.10;65.40
2539;DHT22;1280;49.760;9.664;2023-03-01T10:11:33;4.10;65.40
2539;DHT22;1280;49.760;9.664;2023-03-01T10:14:07;4.20;65.30
2539;DHT22;1280;49.760;9.664;2023-03-01T10:16:46;4.30;65.40
2539;DHT22;1280;49.760;9.664;2023-03-01T10:19:22;4.30;65.10
2539;DHT22;1280;49.760;9.664;2023-03-01T10:21:53;4.30;65.10
2539;DHT22;1280;49.760;9.664;2023-03-01T10:24:21;4.30;64.90
2539;DHT22;1280;49.760;9.664;2023-03-01T10:26:55;4.40;64.90
2539;DHT22;1280;49.760;9.664;2023-03-01T10:29:27;4.50;64.50
2539;DHT22;1280;49.760;9.664;2023-03-01T10:31:58;4.40;64.40
2539;DHT22;1280;49.760;9.664;2023-03-01T10:34:28;4.50;64.50
2539;DHT22;1280;49.760;9.664;2023-03-01T10:37:04;4.50;64.50
2539;DHT22;1280;49.760;9.664;2023-03-01T10:39:36;4.50;64.40
2539;DHT22;1280;49.760;9.664;2023-03-01T10:42:05;4.60;64.40
2539;DHT22;1280;49.760;9.664;2023-03-01T10:44:41;4.70;64.50
2539;DHT22;1280;49.760;9.664;2023-03-01T10:47:19;4.70;64.00
2539;DHT22;1280;49.760;9.664;2023-03-01T10:49:53;4.80;63.80
2539;DHT22;1280;49.760;9.664;2023-03-01T10:52:24;4.80;64.00
2539;DHT22;1280;49.760;9.664;2023-03-01T10:54:55;4.80;64.00
2539;DHT22;1280;49.760;9.664;2023-03-01T10:57:31;4.90;63.70
2539;DHT22;1280;49.760;9.664;2023-03-01T11:00:21;4.90;63.60
2539;DHT22;1280;49.760;9.664;2023-03-01T11:03:01;4.90;63.20
2539;DHT22;1280;49.760;9.664;2023-03-01T11:05:30;4.90;63.30
2539;DHT22;1280;49.760;9.664;2023-03-01T11:08:03;4.90;63.40
2539;DHT22;1280;49.760;9.664;2023-03-01T11:10:32;4.90;63.10
2539;DHT22;1280;49.760;9.664;2023-03-01T11:13:09;4.90;63.20
2539;DHT22;1280;49.760;9.664;2023-03-01T11:15:40;5.00;63.20
2539;DHT22;1280;49.760;9.664;2023-03-01T11:18:19;5.00;63.10
2539;DHT22;1280;49.760;9.664;2023-03-01T11:20:58;5.00;63.00
2539;DHT22;1280;49.760;9.664;2023-03-01T11:23:30;5.00;63.00
2539;DHT22;1280;49.760;9.664;2023-03-01T11:26:01;5.20;63.00
2539;DHT22;1280;49.760;9.664;2023-03-01T11:28:32;5.30;63.00
2539;DHT22;1280;49.760;9.664;2023-03-01T11:31:06;5.30;62.60
2539;DHT22;1280;49.760;9.664;2023-03-01T11:33:41;5.40;62.70
2539;DHT22;1280;49.760;9.664;2023-03-01T11:36:16;5.50;62.60
2539;DHT22;1280;49.760;9.664;2023-03-01T11:38:48;5.50;62.40
2539;DHT22;1280;49.760;9.664;2023-03-01T11:41:20;5.50;62.30
2539;DHT22;1280;49.760;9.664;2023-03-01T11:43:51;5.60;62.00
2539;DHT22;1280;49.760;9.664;2023-03-01T11:49:40;5.70;62.20
2539;DHT22;1280;49.760;9.664;2023-03-01T11:52:21;5.80;62.30
2539;DHT22;1280;49.760;9.664;2023-03-01T11:55:00;5.90;62.10
2539;DHT22;1280;49.760;9.664;2023-03-01T11:57:43;5.90;62.20
2539;DHT22;1280;49.760;9.664;2023-03-01T12:00:24;6.10;61.80
2539;DHT22;1280;49.760;9.664;2023-03-01T12:03:06;6.10;61.40
2539;DHT22;1280;49.760;9.664;2023-03-01T12:08:35;6.10;61.20
2539;DHT22;1280;49.760;9.664;2023-03-01T12:11:16;6.10;61.40
2539;DHT22;1280;49.760;9.664;2023-03-01T12:14:17;6.20;61.40
2539;DHT22;1280;49.760;9.664;2023-03-01T12:17:02;6.20;61.30
2539;DHT22;1280;49.760;9.664;2023-03-01T12:19:40;6.30;61.40
2539;DHT22;1280;49.760;9.664;2023-03-01T12:22:21;6.30;61.30
2539;DHT22;1280;49.760;9.664;2023-03-01T12:25:15;6.30;61.10
2539;DHT22;1280;49.760;9.664;2023-03-01T12:28:04;6.40;61.10
2539;DHT22;1280;49.760;9.664;2023-03-01T12:31:00;6.40;61.20
2539;DHT22;1280;49.760;9.664;2023-03-01T12:33:36;6.40;60.40
2539;DHT22;1280;49.760;9.664;2023-03-01T12:39:19;6.50;60.40
2539;DHT22;1280;49.760;9.664;2023-03-01T12:41:56;6.50;60.10
2539;DHT22;1280;49.760;9.664;2023-03-01T12:44:52;6.60;60.60
2539;DHT22;1280;49.760;9.664;2023-03-01T12:47:39;6.70;60.50
2539;DHT22;1280;49.760;9.664;2023-03-01T12:50:17;6.70;60.10
2539;DHT22;1280;49.760;9.664;2023-03-01T12:52:51;6.70;59.90
2539;DHT22;1280;49.760;9.664;2023-03-01T12:55:26;6.80;60.10
2539;DHT22;1280;49.760;9.664;2023-03-01T12:58:05;6.70;59.60
2539;DHT22;1280;49.760;9.664;2023-03-01T13:00:41;6.70;59.60
2539;DHT22;1280;49.760;9.664;2023-03-01T13:03:21;6.80;59.90
2539;DHT22;1280;49.760;9.664;2023-03-01T13:06:03;6.80;59.80
2539;DHT22;1280;49.760;9.664;2023-03-01T13:08:37;6.90;59.70
2539;DHT22;1280;49.760;9.664;2023-03-01T13:11:15;6.90;59.90
2539;DHT22;1280;49.760;9.664;2023-03-01T13:13:43;7.00;59.60
2539;DHT22;1280;49.760;9.664;2023-03-01T13:16:40;7.00;59.30
2539;DHT22;1280;49.760;9.664;2023-03-01T13:19:12;7.00;59.50
2539;DHT22;1280;49.760;9.664;2023-03-01T13:21:43;7.00;59.10
2539;DHT22;1280;49.760;9.664;2023-03-01T13:24:27;7.00;58.90
2539;DHT22;1280;49.760;9.664;2023-03-01T13:27:22;7.00;58.90
2539;DHT22;1280;49.760;9.664;2023-03-01T13:29:56;7.10;59.10
2539;DHT22;1280;49.760;9.664;2023-03-01T13:32:29;7.20;59.10
2539;DHT22;1280;49.760;9.664;2023-03-01T13:35:41;7.20;59.20
2539;DHT22;1280;49.760;9.664;2023-03-01T13:38:39;7.40;58.90
2539;DHT22;1280;49.760;9.664;2023-03-01T13:41:13;7.40;58.70
2539;DHT22;1280;49.760;9.664;2023-03-01T13:43:42;7.40;58.80
2539;DHT22;1280;49.760;9.664;2023-03-01T13:46:16;7.40;58.70
2539;DHT22;1280;49.760;9.664;2023-03-01T13:48:50;7.50;58.40
2539;DHT22;1280;49.760;9.664;2023-03-01T13:51:22;7.50;58.60
2539;DHT22;1280;49.760;9.664;2023-03-01T13:53:52;7.60;58.10
2539;DHT22;1280;49.760;9.664;2023-03-01T13:56:23;7.60;58.20
2539;DHT22;1280;49.760;9.664;2023-03-01T13:58:53;7.70;58.10
2539;DHT22;1280;49.760;9.664;2023-03-01T14:01:25;7.70;58.10
2539;DHT22;1280;49.760;9.664;2023-03-01T14:03:55;7.70;57.90
2539;DHT22;1280;49.760;9.664;2023-03-01T14:06:25;7.70;57.60
2539;DHT22;1280;49.760;9.664;2023-03-01T14:09:03;7.80;58.00
2539;DHT22;1280;49.760;9.664;2023-03-01T14:11:56;7.80;58.00
2539;DHT22;1280;49.760;9.664;2023-03-01T14:14:36;7.90;58.00
2539;DHT22;1280;49.760;9.664;2023-03-01T14:17:32;7.90;57.90
2539;DHT22;1280;49.760;9.664;2023-03-01T14:20:10;8.00;57.90
2539;DHT22;1280;49.760;9.664;2023-03-01T14:22:41;8.00;58.10
2539;DHT22;1280;49.760;9.664;2023-03-01T14:25:24;8.10;58.00
2539;DHT22;1280;49.760;9.664;2023-03-01T14:27:57;8.10;57.60
2539;DHT22;1280;49.760;9.664;2023-03-01T14:30:27;8.10;57.60
2539;DHT22;1280;49.760;9.664;2023-03-01T14:33:00;8.10;57.90
2539;DHT22;1280;49.760;9.664;2023-03-01T14:35:31;8.10;57.40
2539;DHT22;1280;49.760;9.664;2023-03-01T14:38:00;8.20;57.40
2539;DHT22;1280;49.760;9.664;2023-03-01T14:40:30;8.20;57.30
2539;DHT22;1280;49.760;9.664;2023-03-01T14:43:00;8.20;57.30
2539;DHT22;1280;49.760;9.664;2023-03-01T14:45:30;8.20;57.30
2539;DHT22;1280;49.760;9.664;2023-03-01T14:48:00;8.20;57.30
2539;DHT22;1280;49.760;9.664;2023-03-01T14:50:32;8.20;57.30
2539;DHT22;1280;49.760;9.664;2023-03-01T14:53:02;8.20;57.20
2539;DHT22;1280;49.760;9.664;2023-03-01T14:55:34;8.30;57.30
2539;DHT22;1280;49.760;9.664;2023-03-01T14:58:04;8.30;57.40
2539;DHT22;1280;49.760;9.664;2023-03-01T15:00:33;8.30;57.20
2539;DHT22;1280;49.760;9.664;2023-03-01T15:03:06;8.30;57.10
2539;DHT22;1280;49.760;9.664;2023-03-01T15:05:39;8.40;57.00
2539;DHT22;1280;49.760;9.664;2023-03-01T15:08:16;8.50;56.70
2539;DHT22;1280;49.760;9.664;2023-03-01T15:10:56;8.50;56.90
2539;DHT22;1280;49.760;9.664;2023-03-01T15:13:29;8.40;56.90
2539;DHT22;1280;49.760;9.664;2023-03-01T15:16:03;8.40;56.90
2539;DHT22;1280;49.760;9.664;2023-03-01T15:18:34;8.40;57.10
2539;DHT22;1280;49.760;9.664;2023-03-01T15:21:16;8.50;57.00
2539;DHT22;1280;49.760;9.664;2023-03-01T15:23:48;8.50;57.00
2539;DHT22;1280;49.760;9.664;2023-03-01T15:26:25;8.50;56.90
2539;DHT22;1280;49.760;9.664;2023-03-01T15:28:55;8.50;56.90
2539;DHT22;1280;49.760;9.664;2023-03-01T15:31:28;8.50;56.80
2539;DHT22;1280;49.760;9.664;2023-03-01T15:34:11;8.40;56.80
2539;DHT22;1280;49.760;9.664;2023-03-01T15:36:50;8.40;56.90
2539;DHT22;1280;49.760;9.664;2023-03-01T15:39:36;8.40;56.90
2539;DHT22;1280;49.760;9.664;2023-03-01T15:42:11;8.50;56.90
2539;DHT22;1280;49.760;9.664;2023-03-01T15:44:40;8.40;56.90
2539;DHT22;1280;49.760;9.664;2023-03-01T15:47:24;8.50;56.90
2539;DHT22;1280;49.760;9.664;2023-03-01T15:49:54;8.50;56.90
2539;DHT22;1280;49.760;9.664;2023-03-01T15:52:25;8.50;56.90
2539;DHT22;1280;49.760;9.664;2023-03-01T15:54:58;8.40;56.70
2539;DHT22;1280;49.760;9.664;2023-03-01T15:57:27;8.40;56.80
2539;DHT22;1280;49.760;9.664;2023-03-01T15:59:55;8.40;56.80
2539;DHT22;1280;49.760;9.664;2023-03-01T16:02:23;8.40;56.80
2539;DHT22;1280;49.760;9.664;2023-03-01T16:04:52;8.30;56.90
2539;DHT22;1280;49.760;9.664;2023-03-01T16:07:36;8.30;56.80
2539;DHT22;1280;49.760;9.664;2023-03-01T16:10:09;8.30;57.00
2539;DHT22;1280;49.760;9.664;2023-03-01T16:12:37;8.30;57.00
2539;DHT22;1280;49.760;9.664;2023-03-01T16:15:14;8.30;57.00
2539;DHT22;1280;49.760;9.664;2023-03-01T16:17:43;8.30;57.00
2539;DHT22;1280;49.760;9.664;2023-03-01T16:20:20;8.30;57.00
2539;DHT22;1280;49.760;9.664;2023-03-01T16:22:57;8.30;57.00
2539;DHT22;1280;49.760;9.664;2023-03-01T16:25:26;8.30;57.00
2539;DHT22;1280;49.760;9.664;2023-03-01T16:27:55;8.20;56.90
2539;DHT22;1280;49.760;9.664;2023-03-01T16:30:25;8.20;57.00
2539;DHT22;1280;49.760;9.664;2023-03-01T16:32:53;8.20;57.00
2539;DHT22;1280;49.760;9.664;2023-03-01T16:35:25;8.10;57.00
2539;DHT22;1280;49.760;9.664;2023-03-01T16:37:53;8.10;57.00
2539;DHT22;1280;49.760;9.664;2023-03-01T16:40:24;8.10;57.20
2539;DHT22;1280;49.760;9.664;2023-03-01T16:42:54;8.10;57.10
2539;DHT22;1280;49.760;9.664;2023-03-01T16:45:26;8.10;57.10
2539;DHT22;1280;49.760;9.664;2023-03-01T16:47:55;8.00;57.20
2539;DHT22;1280;49.760;9.664;2023-03-01T16:50:24;7.90;57.30
2539;DHT22;1280;49.760;9.664;2023-03-01T16:52:52;7.90;57.40
2539;DHT22;1280;49.760;9.664;2023-03-01T16:55:20;7.80;57.40
2539;DHT22;1280;49.760;9.664;2023-03-01T16:57:49;7.80;57.40
2539;DHT22;1280;49.760;9.664;2023-03-01T17:00:18;7.70;57.60
2539;DHT22;1280;49.760;9.664;2023-03-01T17:02:46;7.70;57.70